Time;durP1;ratioP1;P1;durP2;ratioP2;P2;SDS_P1;SDS_P2;PMS_P1;PMS_P2;Temp;Humidity;BMP_temperature;BMP_pressure;BME280_temperature;BME280_humidity;BME280_pressure;Samples;Min_cycle;Max_cycle;Signal;HPM_P1;HPM_P2
2023/11/09 00:00:57;;;;;;;20.13;3.33;;;;;;;;;;5057226;28;20037;-41
2023/11/09 00:03:24;;;;;;;23.75;3.50;;;;;;;;;;5063210;28;20029;-40
2023/11/09 00:05:51;;;;;;;25.05;3.80;;;;;;;;;;5058860;28;20029;-40
2023/11/09 00:08:18;;;;;;;22.85;3.83;;;;;;;;;;5063033;28;20115;-41
2023/11/09 00:10:45;;;;;;;29.45;3.78;;;;;;;;;;5057710;28;20061;-41
2023/11/09 00:13:12;;;;;;;26.95;3.83;;;;;;;;;;5061463;28;20036;-40
2023/11/09 00:15:39;;;;;;;24.55;3.85;;;;;;;;;;5059257;28;20052;-40
2023/11/09 00:18:06;;;;;;;24.80;3.47;;;;;;;;;;5060505;28;20068;-41
2023/11/09 00:20:34;;;;;;;25.35;3.92;;;;;;;;;;5064384;28;20040;-41
2023/11/09 00:23:01;;;;;;;27.80;3.72;;;;;;;;;;5070473;28;20390;-41
2023/11/09 00:25:29;;;;;;;35.67;4.35;;;;;;;;;;5073275;28;20040;-39
2023/11/09 00:27:56;;;;;;;32.42;4.38;;;;;;;;;;5064680;28;20028;-40
2023/11/09 00:30:22;;;;;;;37.58;5.13;;;;;;;;;;5076853;28;20028;-38
2023/11/09 00:32:49;;;;;;;36.13;4.88;;;;;;;;;;5058820;28;20029;-39
2023/11/09 00:35:19;;;;;;;50.83;4.60;;;;;;;;;;5063723;28;20111;-38
2023/11/09 00:37:46;;;;;;;44.03;4.95;;;;;;;;;;5073685;28;20040;-40
2023/11/09 00:40:13;;;;;;;40.30;5.55;;;;;;;;;;5072369;28;20020;-38
2023/11/09 00:42:40;;;;;;;47.05;6.13;;;;;;;;;;5071859;28;20036;-38
2023/11/09 00:45:07;;;;;;;28.08;4.53;;;;;;;;;;5040335;28;20032;-37
2023/11/09 00:47:35;;;;;;;40.72;6.50;;;;;;;;;;5058343;28;20090;-37
2023/11/09 00:50:02;;;;;;;41.17;5.53;;;;;;;;;;5061824;28;20379;-39
2023/11/09 00:52:30;;;;;;;43.90;6.13;;;;;;;;;;5071708;28;20072;-36
2023/11/09 00:54:57;;;;;;;49.03;7.05;;;;;;;;;;5063435;28;20032;-37
2023/11/09 00:57:26;;;;;;;42.13;6.07;;;;;;;;;;5073383;28;20028;-37
2023/11/09 00:59:53;;;;;;;47.55;7.00;;;;;;;;;;5067293;28;20035;-37
2023/11/09 01:02:20;;;;;;;50.30;7.07;;;;;;;;;;5068488;28;20086;-38
2023/11/09 01:04:47;;;;;;;55.97;6.85;;;;;;;;;;5073506;28;20066;-38
2023/11/09 01:07:14;;;;;;;51.08;8.02;;;;;;;;;;5073655;28;20078;-38
2023/11/09 01:09:41;;;;;;;51.40;7.10;;;;;;;;;;5073528;28;20086;-37
2023/11/09 01:12:09;;;;;;;48.03;7.63;;;;;;;;;;5056685;28;20033;-38
2023/11/09 01:14:36;;;;;;;46.03;7.82;;;;;;;;;;5059818;28;20172;-38
2023/11/09 01:17:03;;;;;;;57.63;8.73;;;;;;;;;;5072641;28;20055;-38
2023/11/09 01:19:30;;;;;;;57.45;8.50;;;;;;;;;;5073149;28;20025;-38
2023/11/09 01:21:57;;;;;;;64.53;9.90;;;;;;;;;;5072416;28;20040;-38
2023/11/09 01:24:24;;;;;;;55.28;10.18;;;;;;;;;;5056513;28;20029;-38
2023/11/09 01:26:51;;;;;;;60.22;11.88;;;;;;;;;;5071091;28;20054;-38
2023/11/09 01:29:21;;;;;;;56.53;11.23;;;;;;;;;;5073190;28;20481;-38
2023/11/09 01:31:49;;;;;;;64.70;13.57;;;;;;;;;;5070653;28;20090;-38
2023/11/09 01:34:16;;;;;;;74.70;14.82;;;;;;;;;;5072892;28;20082;-38
2023/11/09 01:36:43;;;;;;;83.95;16.23;;;;;;;;;;5072508;28;20036;-38
2023/11/09 01:39:13;;;;;;;87.70;18.00;;;;;;;;;;5073029;28;20032;-38
2023/11/09 01:41:42;;;;;;;84.07;16.88;;;;;;;;;;5072914;28;20032;-38
2023/11/09 01:44:09;;;;;;;69.97;15.80;;;;;;;;;;5062701;28;20094;-39
2023/11/09 01:46:38;;;;;;;88.57;16.45;;;;;;;;;;5069992;28;20032;-38
2023/11/09 01:49:05;;;;;;;73.80;17.58;;;;;;;;;;5072433;28;20024;-38
2023/11/09 01:51:33;;;;;;;89.13;17.83;;;;;;;;;;5072364;28;20088;-37
2023/11/09 01:54:00;;;;;;;82.22;17.40;;;;;;;;;;5055510;28;20028;-38
2023/11/09 01:56:27;;;;;;;81.15;17.85;;;;;;;;;;5056190;28;20036;-38
2023/11/09 01:58:54;;;;;;;71.07;17.77;;;;;;;;;;5054925;28;20032;-38
2023/11/09 02:01:21;;;;;;;81.97;17.55;;;;;;;;;;5054335;28;20040;-39
2023/11/09 02:03:48;;;;;;;82.07;17.73;;;;;;;;;;5059155;28;20024;-38
2023/11/09 02:06:18;;;;;;;79.97;17.63;;;;;;;;;;5072257;28;20509;-38
2023/11/09 02:08:47;;;;;;;89.80;18.15;;;;;;;;;;5069549;28;20025;-38
2023/11/09 02:11:15;;;;;;;83.63;17.65;;;;;;;;;;5071633;28;20040;-39
2023/11/09 02:13:42;;;;;;;86.05;18.20;;;;;;;;;;5064374;28;20562;-38
2023/11/09 02:16:09;;;;;;;81.45;16.08;;;;;;;;;;5064502;28;20029;-39
2023/11/09 02:18:36;;;;;;;83.65;16.90;;;;;;;;;;5071811;28;20120;-39
2023/11/09 02:21:03;;;;;;;82.85;16.55;;;;;;;;;;5071836;28;20033;-39
2023/11/09 02:23:33;;;;;;;84.18;17.35;;;;;;;;;;5072116;28;20040;-39
2023/11/09 02:26:01;;;;;;;76.80;16.65;;;;;;;;;;5071282;28;20433;-38
2023/11/09 02:28:28;;;;;;;79.32;17.00;;;;;;;;;;5068940;28;20081;-39
2023/11/09 02:30:55;;;;;;;73.88;15.52;;;;;;;;;;5072266;28;20028;-39
2023/11/09 02:33:22;;;;;;;74.88;16.92;;;;;;;;;;5072167;28;20021;-38
2023/11/09 02:35:49;;;;;;;73.57;16.42;;;;;;;;;;5065680;28;20029;-39
2023/11/09 02:38:16;;;;;;;75.80;15.98;;;;;;;;;;5070659;28;20028;-39
2023/11/09 02:40:43;;;;;;;66.88;15.02;;;;;;;;;;5051144;28;20360;-39
2023/11/09 02:43:10;;;;;;;68.40;16.00;;;;;;;;;;5070591;28;20035;-39
2023/11/09 02:45:37;;;;;;;72.40;16.73;;;;;;;;;;5070298;28;20020;-39
2023/11/09 02:48:04;;;;;;;83.60;17.15;;;;;;;;;;5070771;28;20017;-38
2023/11/09 02:50:31;;;;;;;69.05;15.48;;;;;;;;;;5070268;28;20110;-39
2023/11/09 02:52:58;;;;;;;68.43;16.45;;;;;;;;;;5070639;28;20391;-38
2023/11/09 02:55:25;;;;;;;67.80;16.27;;;;;;;;;;5063294;28;20031;-39
2023/11/09 02:57:52;;;;;;;75.95;17.10;;;;;;;;;;5051589;28;20029;-39
2023/11/09 03:00:19;;;;;;;69.43;16.83;;;;;;;;;;5051538;28;20043;-39
2023/11/09 03:02:46;;;;;;;94.50;16.45;;;;;;;;;;5051610;28;20555;-39
2023/11/09 03:05:17;;;;;;;75.60;16.83;;;;;;;;;;5051426;28;20021;-39
2023/11/09 03:07:44;;;;;;;83.30;16.70;;;;;;;;;;5051619;28;20021;-38
2023/11/09 03:10:11;;;;;;;73.32;15.70;;;;;;;;;;5051613;28;20032;-38
2023/11/09 03:12:42;;;;;;;76.38;15.93;;;;;;;;;;5051427;28;20036;-39
2023/11/09 03:15:10;;;;;;;76.93;16.48;;;;;;;;;;5051496;28;20043;-39
2023/11/09 03:17:43;;;;;;;82.80;16.73;;;;;;;;;;5051173;28;20025;-39
2023/11/09 03:20:10;;;;;;;70.93;15.82;;;;;;;;;;5051404;28;20033;-38
2023/11/09 03:22:41;;;;;;;70.30;16.45;;;;;;;;;;5033652;28;20025;-39
2023/11/09 03:25:08;;;;;;;79.13;15.82;;;;;;;;;;5033615;28;20057;-39
2023/11/09 03:27:35;;;;;;;70.68;16.05;;;;;;;;;;5051548;28;20023;-39
2023/11/09 03:30:02;;;;;;;74.47;15.18;;;;;;;;;;5051416;28;20017;-39
2023/11/09 03:32:29;;;;;;;71.45;14.95;;;;;;;;;;5051453;28;20021;-38
2023/11/09 03:34:56;;;;;;;74.50;15.57;;;;;;;;;;5051353;28;20500;-38
2023/11/09 03:37:23;;;;;;;67.97;15.55;;;;;;;;;;5051455;28;20025;-39
2023/11/09 03:39:50;;;;;;;69.10;14.85;;;;;;;;;;5054730;28;20031;-38
2023/11/09 03:42:17;;;;;;;64.93;14.25;;;;;;;;;;5055510;28;20028;-39
2023/11/09 03:44:44;;;;;;;73.38;14.50;;;;;;;;;;5055354;28;20379;-39
2023/11/09 03:47:11;;;;;;;59.95;13.32;;;;;;;;;;5056611;28;20029;-38
2023/11/09 03:49:42;;;;;;;58.35;14.48;;;;;;;;;;5075503;28;20052;-38
2023/11/09 03:52:09;;;;;;;54.80;13.40;;;;;;;;;;5075402;28;20111;-39
2023/11/09 03:54:36;;;;;;;71.78;16.30;;;;;;;;;;5075293;28;20025;-39
2023/11/09 03:57:03;;;;;;;56.45;14.05;;;;;;;;;;5075252;28;20013;-38
2023/11/09 03:59:30;;;;;;;60.47;15.48;;;;;;;;;;5075221;28;20494;-38
2023/11/09 04:01:57;;;;;;;56.65;13.30;;;;;;;;;;5075080;28;20478;-39
2023/11/09 04:04:24;;;;;;;63.40;14.20;;;;;;;;;;5075019;28;20021;-38
2023/11/09 04:06:51;;;;;;;67.03;14.38;;;;;;;;;;5075145;28;20074;-38
2023/11/09 04:09:22;;;;;;;52.67;12.18;;;;;;;;;;5074992;28;20479;-38
2023/11/09 04:11:49;;;;;;;47.40;12.23;;;;;;;;;;5075089;28;20048;-38
2023/11/09 04:14:16;;;;;;;54.15;12.95;;;;;;;;;;5074701;28;20057;-38
2023/11/09 04:16:43;;;;;;;54.75;13.27;;;;;;;;;;5074871;28;20020;-39
2023/11/09 04:19:10;;;;;;;52.05;13.45;;;;;;;;;;5074861;28;20048;-38
2023/11/09 04:21:37;;;;;;;47.28;12.82;;;;;;;;;;5074592;28;20039;-39
2023/11/09 04:24:06;;;;;;;54.80;13.82;;;;;;;;;;5074605;28;20017;-39
2023/11/09 04:26:33;;;;;;;59.85;13.90;;;;;;;;;;5074596;28;20446;-39
2023/11/09 04:29:00;;;;;;;54.35;12.38;;;;;;;;;;5074627;28;20022;-39
2023/11/09 04:31:30;;;;;;;55.15;12.30;;;;;;;;;;5074632;28;20031;-39
2023/11/09 04:34:03;;;;;;;54.80;13.15;;;;;;;;;;5074234;28;20486;-39
2023/11/09 04:36:31;;;;;;;53.90;12.98;;;;;;;;;;5074557;28;20024;-39
2023/11/09 04:38:58;;;;;;;48.45;12.48;;;;;;;;;;5074314;28;20024;-38
2023/11/09 04:41:25;;;;;;;47.08;12.50;;;;;;;;;;5074407;28;20060;-38
2023/11/09 04:43:55;;;;;;;53.05;11.57;;;;;;;;;;5074332;28;20032;-39
2023/11/09 04:46:23;;;;;;;47.33;12.02;;;;;;;;;;5074161;28;20032;-39
2023/11/09 04:48:55;;;;;;;51.42;11.95;;;;;;;;;;5074216;28;20064;-39
2023/11/09 04:51:26;;;;;;;41.20;11.35;;;;;;;;;;5073277;28;20070;-39
2023/11/09 04:53:56;;;;;;;45.75;10.70;;;;;;;;;;5073990;28;20517;-39
2023/11/09 04:56:42;;;;;;;44.70;10.77;;;;;;;;;;5074322;28;20454;-39
2023/11/09 05:07:27;;;;;;;51.10;11.55;;;;;;;;;;5073906;28;20039;-38
2023/11/09 05:09:56;;;;;;;47.55;12.15;;;;;;;;;;5073729;28;20033;-39
2023/11/09 05:12:22;;;;;;;40.75;10.90;;;;;;;;;;5073756;28;20111;-39
2023/11/09 05:14:51;;;;;;;42.00;10.65;;;;;;;;;;5073474;28;20048;-39
2023/11/09 05:17:19;;;;;;;37.45;10.40;;;;;;;;;;5073705;28;20055;-38
2023/11/09 05:19:46;;;;;;;35.58;10.35;;;;;;;;;;5073383;28;20038;-39
2023/11/09 05:22:15;;;;;;;43.55;10.38;;;;;;;;;;5073634;28;20029;-39
2023/11/09 05:24:42;;;;;;;33.65;9.23;;;;;;;;;;5073361;28;20445;-38
2023/11/09 05:27:10;;;;;;;39.38;10.05;;;;;;;;;;5073645;28;20098;-38
2023/11/09 05:29:38;;;;;;;31.23;9.05;;;;;;;;;;5073527;28;20023;-38
2023/11/09 05:32:08;;;;;;;37.20;10.15;;;;;;;;;;5073308;28;20094;-38
2023/11/09 05:34:36;;;;;;;29.40;9.18;;;;;;;;;;5073197;28;20040;-39
2023/11/09 05:37:03;;;;;;;38.83;10.25;;;;;;;;;;5073349;28;20024;-38
2023/11/09 05:39:30;;;;;;;37.00;10.07;;;;;;;;;;5073065;28;20028;-38
2023/11/09 05:41:59;;;;;;;33.45;9.80;;;;;;;;;;5073092;28;20040;-38
2023/11/09 05:44:29;;;;;;;32.72;9.68;;;;;;;;;;5073101;28;20398;-38
2023/11/09 05:46:56;;;;;;;33.53;9.48;;;;;;;;;;5073258;28;20031;-38
2023/11/09 05:49:23;;;;;;;31.65;9.23;;;;;;;;;;5073084;28;20379;-38
2023/11/09 05:51:50;;;;;;;27.27;8.70;;;;;;;;;;5073118;28;20043;-39
2023/11/09 05:54:17;;;;;;;29.25;8.52;;;;;;;;;;5072899;28;20032;-39
2023/11/09 05:56:45;;;;;;;30.80;7.80;;;;;;;;;;5055090;28;20024;-38
2023/11/09 05:59:12;;;;;;;28.90;7.88;;;;;;;;;;5073060;28;20024;-38
2023/11/09 06:01:41;;;;;;;27.77;8.00;;;;;;;;;;5071319;28;20045;-38
2023/11/09 06:04:08;;;;;;;27.23;7.45;;;;;;;;;;5072703;28;20025;-39
2023/11/09 06:06:35;;;;;;;29.42;8.30;;;;;;;;;;5072744;28;20025;-38
2023/11/09 06:09:06;;;;;;;22.23;7.65;;;;;;;;;;5072737;28;20479;-38
2023/11/09 06:11:34;;;;;;;24.10;7.32;;;;;;;;;;5072562;28;20141;-38
2023/11/09 06:14:03;;;;;;;30.38;8.10;;;;;;;;;;5072420;28;20474;-38
2023/11/09 06:16:30;;;;;;;23.75;8.20;;;;;;;;;;5072484;28;20086;-38
2023/11/09 06:18:58;;;;;;;25.35;7.35;;;;;;;;;;5072475;28;20066;-38
2023/11/09 06:21:25;;;;;;;23.45;7.35;;;;;;;;;;5072335;28;20036;-39
2023/11/09 06:23:52;;;;;;;24.98;7.85;;;;;;;;;;5072413;28;20475;-39
2023/11/09 06:26:22;;;;;;;27.17;7.47;;;;;;;;;;5072329;28;20024;-38
2023/11/09 06:28:52;;;;;;;21.50;6.85;;;;;;;;;;5072420;28;20098;-38
2023/11/09 06:31:21;;;;;;;20.60;6.65;;;;;;;;;;5055106;28;20471;-39
2023/11/09 06:33:49;;;;;;;19.38;6.13;;;;;;;;;;5054805;28;20033;-39
2023/11/09 06:36:16;;;;;;;23.63;7.05;;;;;;;;;;5072296;28;20032;-39
2023/11/09 06:38:43;;;;;;;20.55;6.43;;;;;;;;;;5072230;28;20020;-39
2023/11/09 06:41:10;;;;;;;18.58;6.45;;;;;;;;;;5072122;28;20417;-39
2023/11/09 06:43:37;;;;;;;19.40;5.95;;;;;;;;;;5072056;28;20070;-38
2023/11/09 06:46:05;;;;;;;23.65;6.03;;;;;;;;;;5072150;28;20025;-39
2023/11/09 06:48:31;;;;;;;15.75;5.63;;;;;;;;;;5071911;28;20078;-38
2023/11/09 06:50:58;;;;;;;18.63;5.82;;;;;;;;;;5072075;28;20078;-39
2023/11/09 06:53:26;;;;;;;19.00;6.30;;;;;;;;;;5072013;28;20022;-39
2023/11/09 06:55:53;;;;;;;17.00;5.30;;;;;;;;;;5071911;28;20048;-39
2023/11/09 06:58:20;;;;;;;20.05;5.95;;;;;;;;;;5071762;28;20032;-39
2023/11/09 07:00:47;;;;;;;15.75;5.05;;;;;;;;;;5071866;28;20123;-38
2023/11/09 07:03:14;;;;;;;17.00;5.47;;;;;;;;;;5071865;28;20019;-38
2023/11/09 07:05:41;;;;;;;13.00;4.63;;;;;;;;;;5071782;28;20028;-38
2023/11/09 07:08:08;;;;;;;18.95;5.30;;;;;;;;;;5071879;28;20024;-38
2023/11/09 07:10:35;;;;;;;12.90;4.80;;;;;;;;;;5071793;28;20047;-39
2023/11/09 07:13:03;;;;;;;18.15;4.80;;;;;;;;;;5071023;28;20063;-38
2023/11/09 07:15:31;;;;;;;13.80;4.50;;;;;;;;;;5071470;28;20102;-39
2023/11/09 07:18:04;;;;;;;16.63;4.80;;;;;;;;;;5071695;28;20433;-38
2023/11/09 07:20:33;;;;;;;14.43;4.50;;;;;;;;;;5071492;28;20024;-38
2023/11/09 07:23:06;;;;;;;12.45;4.60;;;;;;;;;;5071455;28;20039;-38
2023/11/09 07:25:33;;;;;;;13.90;4.97;;;;;;;;;;5071532;28;20016;-39
2023/11/09 07:28:00;;;;;;;17.13;4.15;;;;;;;;;;5071574;28;20060;-39
2023/11/09 07:30:31;;;;;;;13.43;4.05;;;;;;;;;;5071515;28;20429;-38
2023/11/09 07:32:59;;;;;;;12.27;3.95;;;;;;;;;;5071508;28;20039;-38
2023/11/09 07:35:27;;;;;;;15.60;4.28;;;;;;;;;;5071418;28;20017;-38
2023/11/09 07:37:55;;;;;;;12.85;4.15;;;;;;;;;;5071663;28;20379;-39
2023/11/09 07:40:28;;;;;;;15.95;4.57;;;;;;;;;;5071463;28;20017;-39
2023/11/09 07:42:57;;;;;;;12.07;4.00;;;;;;;;;;5071503;28;20103;-38
2023/11/09 07:45:24;;;;;;;13.88;4.40;;;;;;;;;;5071218;28;20032;-38
2023/11/09 07:47:50;;;;;;;12.85;3.75;;;;;;;;;;5071450;28;20020;-38
2023/11/09 07:50:17;;;;;;;10.75;3.60;;;;;;;;;;5071364;28;20040;-39
2023/11/09 07:52:47;;;;;;;8.18;3.30;;;;;;;;;;5053341;28;20051;-38
2023/11/09 07:55:16;;;;;;;10.25;3.30;;;;;;;;;;5071139;28;20035;-39
2023/11/09 07:57:45;;;;;;;14.18;3.75;;;;;;;;;;5071142;28;20111;-38
2023/11/09 08:00:12;;;;;;;13.80;3.53;;;;;;;;;;5071129;28;20031;-38
2023/11/09 08:02:39;;;;;;;9.82;3.47;;;;;;;;;;5071177;28;20145;-38
2023/11/09 08:05:11;;;;;;;9.65;3.30;;;;;;;;;;5071126;28;20024;-38
2023/11/09 08:07:39;;;;;;;11.10;3.70;;;;;;;;;;5071048;28;20031;-38
2023/11/09 08:10:06;;;;;;;11.70;3.83;;;;;;;;;;5071130;28;20031;-38
2023/11/09 08:12:34;;;;;;;10.73;3.30;;;;;;;;;;5070893;28;20029;-38
2023/11/09 08:15:01;;;;;;;9.85;3.47;;;;;;;;;;5070908;28;20073;-38
2023/11/09 08:17:28;;;;;;;7.78;3.25;;;;;;;;;;5071136;28;20043;-38
2023/11/09 08:19:54;;;;;;;12.35;3.92;;;;;;;;;;5071096;28;20478;-38
2023/11/09 08:22:21;;;;;;;9.10;3.05;;;;;;;;;;5071006;28;20032;-38
2023/11/09 08:24:48;;;;;;;12.27;3.20;;;;;;;;;;5072192;28;20024;-38
2023/11/09 08:27:15;;;;;;;8.95;3.17;;;;;;;;;;5074613;28;20035;-38
2023/11/09 08:29:43;;;;;;;11.43;3.25;;;;;;;;;;5074597;28;20446;-38
2023/11/09 08:32:10;;;;;;;13.55;3.28;;;;;;;;;;5074828;28;20056;-38
2023/11/09 08:34:37;;;;;;;11.07;3.00;;;;;;;;;;5074508;28;20020;-38
2023/11/09 08:37:06;;;;;;;8.25;2.80;;;;;;;;;;5074468;28;20513;-38
2023/11/09 08:39:34;;;;;;;9.40;2.90;;;;;;;;;;5074399;28;20032;-38
2023/11/09 08:42:03;;;;;;;10.43;3.30;;;;;;;;;;5074246;28;20123;-39
2023/11/09 08:44:30;;;;;;;9.15;3.05;;;;;;;;;;5074236;28;20042;-38
2023/11/09 08:47:00;;;;;;;11.02;3.47;;;;;;;;;;5074408;28;20024;-39
2023/11/09 08:49:27;;;;;;;7.32;2.45;;;;;;;;;;5074175;28;20033;-38
2023/11/09 08:51:54;;;;;;;11.10;2.65;;;;;;;;;;5074176;28;20032;-38
2023/11/09 08:54:22;;;;;;;6.80;2.67;;;;;;;;;;5074140;28;20530;-38
2023/11/09 08:56:49;;;;;;;8.95;2.70;;;;;;;;;;5074252;28;20028;-39
2023/11/09 08:59:15;;;;;;;7.40;2.72;;;;;;;;;;5074211;28;20027;-38
2023/11/09 09:01:48;;;;;;;10.63;2.85;;;;;;;;;;5073838;28;20055;-38
2023/11/09 09:04:15;;;;;;;9.70;2.60;;;;;;;;;;5074178;28;20036;-38
2023/11/09 09:06:42;;;;;;;7.35;2.33;;;;;;;;;;5074026;28;20028;-38
2023/11/09 09:09:15;;;;;;;7.18;2.47;;;;;;;;;;5074100;28;20021;-38
2023/11/09 09:11:45;;;;;;;7.75;2.17;;;;;;;;;;5073798;28;20036;-38
2023/11/09 09:14:14;;;;;;;8.00;2.78;;;;;;;;;;5072617;28;20060;-39
2023/11/09 09:16:41;;;;;;;7.50;2.28;;;;;;;;;;5055156;28;20032;-39
2023/11/09 09:19:08;;;;;;;8.52;2.28;;;;;;;;;;5073015;28;20052;-39
2023/11/09 09:21:36;;;;;;;16.63;2.78;;;;;;;;;;5073376;28;20032;-39
2023/11/09 09:24:04;;;;;;;10.27;2.28;;;;;;;;;;5073417;28;20526;-38
2023/11/09 09:26:33;;;;;;;7.47;2.42;;;;;;;;;;5073117;28;20040;-39
2023/11/09 09:29:01;;;;;;;8.27;2.40;;;;;;;;;;5073221;28;20112;-38
2023/11/09 09:31:29;;;;;;;8.23;2.30;;;;;;;;;;5072709;28;20074;-39
2023/11/09 09:34:08;;;;;;;8.20;2.33;;;;;;;;;;5072273;28;20129;-39
2023/11/09 09:36:36;;;;;;;7.30;2.08;;;;;;;;;;5072027;28;20021;-39
2023/11/09 09:39:03;;;;;;;9.68;2.20;;;;;;;;;;5072832;28;20035;-39
2023/11/09 09:41:37;;;;;;;6.63;2.22;;;;;;;;;;5073479;28;20040;-38
2023/11/09 09:44:06;;;;;;;7.05;1.67;;;;;;;;;;5073071;28;20024;-39
2023/11/09 09:46:38;;;;;;;9.98;1.98;;;;;;;;;;5072728;28;20047;-38
2023/11/09 09:49:08;;;;;;;8.68;2.30;;;;;;;;;;5072830;28;20054;-38
2023/11/09 09:51:39;;;;;;;12.30;2.20;;;;;;;;;;5072789;28;20452;-39
2023/11/09 09:54:10;;;;;;;13.32;2.60;;;;;;;;;;5073099;28;20021;-39
2023/11/09 09:56:38;;;;;;;8.57;2.25;;;;;;;;;;5072914;28;20518;-38
2023/11/09 09:59:11;;;;;;;9.80;2.45;;;;;;;;;;5073064;28;20066;-38
2023/11/09 10:01:39;;;;;;;6.32;2.25;;;;;;;;;;5072929;28;20033;-39
2023/11/09 10:04:09;;;;;;;10.43;2.10;;;;;;;;;;5072894;28;20028;-39
2023/11/09 10:06:37;;;;;;;10.30;2.17;;;;;;;;;;5071687;28;20028;-39
2023/11/09 10:09:07;;;;;;;8.15;2.00;;;;;;;;;;5065288;28;20661;-38
2023/11/09 10:11:34;;;;;;;11.07;2.10;;;;;;;;;;5071657;28;20082;-40
2023/11/09 10:14:01;;;;;;;11.30;2.08;;;;;;;;;;5072379;28;20095;-40
2023/11/09 10:16:32;;;;;;;7.72;2.05;;;;;;;;;;5070852;28;20028;-38
2023/11/09 10:19:02;;;;;;;9.07;1.92;;;;;;;;;;5071993;28;20028;-39
2023/11/09 10:21:33;;;;;;;10.05;2.08;;;;;;;;;;5072284;28;20486;-40
2023/11/09 10:24:01;;;;;;;10.70;2.13;;;;;;;;;;5072228;28;20032;-40
2023/11/09 10:26:41;;;;;;;11.93;2.17;;;;;;;;;;5070479;28;20033;-41
2023/11/09 10:29:13;;;;;;;8.93;1.92;;;;;;;;;;5071947;28;20138;-40
2023/11/09 10:31:44;;;;;;;6.50;1.63;;;;;;;;;;5071053;28;20083;-40
2023/11/09 10:34:12;;;;;;;7.15;1.70;;;;;;;;;;5071954;28;20028;-39
2023/11/09 10:36:44;;;;;;;6.93;2.03;;;;;;;;;;5069018;28;20031;-40
2023/11/09 10:39:23;;;;;;;7.35;2.00;;;;;;;;;;5070925;28;20036;-40
2023/11/09 10:41:52;;;;;;;6.93;1.92;;;;;;;;;;5069395;28;20431;-40
2023/11/09 10:44:23;;;;;;;9.73;2.35;;;;;;;;;;5071025;28;20036;-39
2023/11/09 10:46:53;;;;;;;11.55;2.00;;;;;;;;;;5069882;28;20031;-39
2023/11/09 10:49:31;;;;;;;5.30;1.75;;;;;;;;;;5070980;28;20036;-37
2023/11/09 10:51:59;;;;;;;10.35;2.13;;;;;;;;;;5071881;28;20054;-37
2023/11/09 10:54:29;;;;;;;11.23;2.00;;;;;;;;;;5070865;28;20028;-37
2023/11/09 10:56:56;;;;;;;8.90;1.85;;;;;;;;;;5070345;28;20099;-38
2023/11/09 10:59:24;;;;;;;8.32;1.90;;;;;;;;;;5070816;28;20020;-37
2023/11/09 11:01:55;;;;;;;6.95;1.80;;;;;;;;;;5070625;28;20083;-37
2023/11/09 11:04:25;;;;;;;12.13;1.75;;;;;;;;;;5070875;28;20536;-37
2023/11/09 11:06:56;;;;;;;8.70;1.65;;;;;;;;;;5071466;28;20031;-38
2023/11/09 11:09:26;;;;;;;8.77;1.85;;;;;;;;;;5069876;28;20036;-37
2023/11/09 11:12:02;;;;;;;6.70;1.70;;;;;;;;;;5071413;28;20453;-40
2023/11/09 11:14:31;;;;;;;7.22;1.70;;;;;;;;;;5070879;28;20117;-41
2023/11/09 11:17:12;;;;;;;5.88;1.60;;;;;;;;;;5059972;28;20103;-39
2023/11/09 11:19:54;;;;;;;12.95;1.95;;;;;;;;;;5069358;28;20024;-38
2023/11/09 11:22:22;;;;;;;7.95;1.70;;;;;;;;;;5070992;28;20147;-38
2023/11/09 11:25:14;;;;;;;8.43;1.55;;;;;;;;;;5070516;28;20107;-38
2023/11/09 11:27:44;;;;;;;6.87;1.80;;;;;;;;;;5071499;28;20398;-38
2023/11/09 11:30:26;;;;;;;7.72;1.63;;;;;;;;;;5069006;28;20154;-39
2023/11/09 11:32:57;;;;;;;8.00;1.70;;;;;;;;;;5071067;28;20020;-38
2023/11/09 11:35:39;;;;;;;6.68;1.40;;;;;;;;;;5071055;28;20486;-38
2023/11/09 11:38:15;;;;;;;9.75;1.88;;;;;;;;;;5071259;28;20025;-39
2023/11/09 11:40:45;;;;;;;12.82;1.58;;;;;;;;;;5069778;28;20374;-38
2023/11/09 11:43:13;;;;;;;11.68;2.13;;;;;;;;;;5071113;28;20024;-38
2023/11/09 11:45:44;;;;;;;11.27;2.03;;;;;;;;;;5071266;28;20509;-38
2023/11/09 11:48:24;;;;;;;10.30;1.65;;;;;;;;;;5070897;28;20126;-39
2023/11/09 11:50:51;;;;;;;9.70;1.70;;;;;;;;;;5069701;28;20024;-38
2023/11/09 11:53:28;;;;;;;5.47;1.33;;;;;;;;;;5070876;28;20134;-38
2023/11/09 11:56:09;;;;;;;10.57;1.65;;;;;;;;;;5071080;28;20118;-38
2023/11/09 11:58:53;;;;;;;12.10;2.00;;;;;;;;;;5071358;28;20050;-39
2023/11/09 12:01:27;;;;;;;13.70;1.83;;;;;;;;;;5073544;28;20040;-38
2023/11/09 12:03:56;;;;;;;7.32;2.20;;;;;;;;;;5074867;28;20032;-38
2023/11/09 12:06:24;;;;;;;10.98;2.15;;;;;;;;;;5074654;28;20029;-38
2023/11/09 12:08:55;;;;;;;9.75;1.30;;;;;;;;;;5068503;28;20032;-39
2023/11/09 12:11:26;;;;;;;12.00;1.45;;;;;;;;;;5069132;28;20085;-38
2023/11/09 12:13:57;;;;;;;8.02;1.30;;;;;;;;;;5074726;28;20141;-38
2023/11/09 12:16:29;;;;;;;14.13;1.83;;;;;;;;;;5056959;28;20402;-38
2023/11/09 12:18:56;;;;;;;11.10;1.52;;;;;;;;;;5075122;28;20032;-38
2023/11/09 12:21:45;;;;;;;10.27;1.52;;;;;;;;;;5074835;28;20034;-38
2023/11/09 12:24:15;;;;;;;9.63;1.30;;;;;;;;;;5074527;28;20032;-38
2023/11/09 12:26:44;;;;;;;15.93;1.85;;;;;;;;;;5074727;28;20021;-40
2023/11/09 12:29:11;;;;;;;11.98;1.98;;;;;;;;;;5068534;28;20040;-41
2023/11/09 12:31:38;;;;;;;14.88;2.13;;;;;;;;;;5064757;28;20478;-39
2023/11/09 12:34:14;;;;;;;17.58;1.80;;;;;;;;;;5073069;28;20017;-40
2023/11/09 12:36:42;;;;;;;12.20;1.83;;;;;;;;;;5071231;28;20033;-39
2023/11/09 12:41:55;;;;;;;11.52;2.10;;;;;;;;;;5054495;28;20116;-41
2023/11/09 12:44:26;;;;;;;18.05;2.20;;;;;;;;;;5054307;28;20033;-41
2023/11/09 12:46:54;;;;;;;12.05;1.67;;;;;;;;;;5054310;28;20502;-41
2023/11/09 12:49:26;;;;;;;11.10;1.75;;;;;;;;;;5062272;28;20049;-40
2023/11/09 12:51:53;;;;;;;23.13;2.00;;;;;;;;;;5071989;28;20509;-41
2023/11/09 12:54:20;;;;;;;15.85;2.03;;;;;;;;;;5074234;28;20783;-40
2023/11/09 12:56:49;;;;;;;13.70;1.92;;;;;;;;;;5074304;28;20012;-40
2023/11/09 12:59:24;;;;;;;15.88;2.15;;;;;;;;;;5074159;28;20025;-41
2023/11/09 13:01:55;;;;;;;11.65;2.10;;;;;;;;;;5073991;28;20162;-39
2023/11/09 13:04:28;;;;;;;14.57;1.80;;;;;;;;;;5073895;28;20070;-41
2023/11/09 13:06:59;;;;;;;17.00;2.05;;;;;;;;;;5073986;28;20103;-40
2023/11/09 13:12:26;;;;;;;12.18;1.80;;;;;;;;;;5073039;28;20085;-39
2023/11/09 13:14:47;;;;;;;13.65;1.58;;;;;;;;;;5073572;28;20414;-40
2023/11/09 13:17:19;;;;;;;11.15;1.60;;;;;;;;;;5073768;28;20131;-41
2023/11/09 13:19:50;;;;;;;14.32;1.88;;;;;;;;;;5073792;28;20043;-41
2023/11/09 13:22:17;;;;;;;7.45;1.95;;;;;;;;;;5073761;28;20112;-41
2023/11/09 13:24:54;;;;;;;9.30;1.55;;;;;;;;;;5073688;28;20029;-40
2023/11/09 13:27:24;;;;;;;12.07;1.80;;;;;;;;;;5073593;28;20025;-41
2023/11/09 13:29:51;;;;;;;9.23;1.27;;;;;;;;;;5073680;28;20025;-40
2023/11/09 13:32:26;;;;;;;11.15;1.60;;;;;;;;;;5073589;28;20032;-39
2023/11/09 13:35:24;;;;;;;12.52;2.13;;;;;;;;;;5073381;28;20111;-40
2023/11/09 13:37:55;;;;;;;11.05;1.30;;;;;;;;;;5072879;28;20060;-41
2023/11/09 13:43:08;;;;;;;10.23;1.52;;;;;;;;;;5073530;28;20040;-40
2023/11/09 13:45:36;;;;;;;10.23;1.60;;;;;;;;;;5073220;28;20440;-40
2023/11/09 13:48:19;;;;;;;7.95;1.27;;;;;;;;;;5073358;28;20028;-40
2023/11/09 13:50:47;;;;;;;8.18;1.20;;;;;;;;;;5073109;28;20431;-41
2023/11/09 13:58:53;;;;;;;9.57;1.25;;;;;;;;;;5073034;28;20104;-40
2023/11/09 14:01:31;;;;;;;8.73;1.52;;;;;;;;;;5072878;28;20151;-41
2023/11/09 14:03:58;;;;;;;8.07;1.63;;;;;;;;;;5072747;28;20036;-41
2023/11/09 14:06:25;;;;;;;12.02;1.58;;;;;;;;;;5072842;28;20063;-40
2023/11/09 14:08:58;;;;;;;9.73;1.55;;;;;;;;;;5072809;28;20378;-40
2023/11/09 14:11:26;;;;;;;9.23;1.80;;;;;;;;;;5072689;28;20036;-41
2023/11/09 14:14:03;;;;;;;5.03;1.13;;;;;;;;;;5072540;28;20185;-40
2023/11/09 14:16:34;;;;;;;11.23;1.75;;;;;;;;;;5072676;28;20394;-40
2023/11/09 14:19:20;;;;;;;11.73;1.67;;;;;;;;;;5072602;28;20597;-40
2023/11/09 14:21:50;;;;;;;9.38;1.40;;;;;;;;;;5072445;28;20036;-40
2023/11/09 14:24:22;;;;;;;5.82;1.20;;;;;;;;;;5072437;28;20028;-41
2023/11/09 14:26:49;;;;;;;8.40;1.45;;;;;;;;;;5072458;28;20385;-41
2023/11/09 14:29:18;;;;;;;11.55;1.50;;;;;;;;;;5072466;28;20032;-40
2023/11/09 14:31:46;;;;;;;13.35;1.65;;;;;;;;;;5072358;28;20070;-40
2023/11/09 14:34:14;;;;;;;13.52;1.67;;;;;;;;;;5072305;28;20508;-40
2023/11/09 14:36:45;;;;;;;12.13;1.75;;;;;;;;;;5072282;28;20040;-40
2023/11/09 14:39:31;;;;;;;11.82;1.45;;;;;;;;;;5072201;28;20561;-40
2023/11/09 14:42:05;;;;;;;11.68;1.80;;;;;;;;;;5072103;28;20119;-40
2023/11/09 14:44:35;;;;;;;9.93;1.35;;;;;;;;;;5072134;28;20023;-40
2023/11/09 14:47:06;;;;;;;7.72;1.25;;;;;;;;;;5072234;28;20021;-40
2023/11/09 14:49:34;;;;;;;8.20;1.30;;;;;;;;;;5072052;28;20033;-40
2023/11/09 14:52:20;;;;;;;10.35;1.38;;;;;;;;;;5071932;28;20028;-41
2023/11/09 14:54:47;;;;;;;6.10;1.45;;;;;;;;;;5071866;28;20088;-41
2023/11/09 14:57:19;;;;;;;8.55;1.60;;;;;;;;;;5071932;28;20103;-41
2023/11/09 14:59:47;;;;;;;12.25;1.45;;;;;;;;;;5071861;28;20024;-41
2023/11/09 15:02:20;;;;;;;10.98;1.60;;;;;;;;;;5071851;28;20032;-40